Time;durP1;ratioP1;P1;durP2;ratioP2;P2;SDS_P1;SDS_P2;PMS_P1;PMS_P2;Temp;Humidity;BMP_temperature;BMP_pressure;BME280_temperature;BME280_humidity;BME280_pressure;Samples;Min_cycle;Max_cycle;Signal;HPM_P1;HPM_P2
2022/04/26 03:36:20;;;;;;;15.27;10.63;;;;;;;;;;756026;181;918881;-60
2022/04/26 03:38:47;;;;;;;17.23;11.73;;;;;;;;;;762330;184;917630;-61
2022/04/26 03:41:11;;;;;;;19.43;13.23;;;;;;;;;;756574;184;919849;-60
2022/04/26 03:43:37;;;;;;;15.53;11.00;;;;;;;;;;754940;184;920220;-60
2022/04/26 03:46:03;;;;;;;17.57;11.70;;;;;;;;;;761037;184;919688;-60
2022/04/26 03:48:29;;;;;;;15.68;10.18;;;;;;;;;;755824;183;919287;-60
2022/04/26 03:50:55;;;;;;;14.10;10.13;;;;;;;;;;753734;183;916489;-60
2022/04/26 03:53:20;;;;;;;15.60;10.20;;;;;;;;;;760769;183;916058;-60
2022/04/26 03:55:46;;;;;;;19.03;10.60;;;;;;;;;;758774;183;915294;-61
2022/04/26 03:58:12;;;;;;;15.13;9.77;;;;;;;;;;755290;183;915805;-60
2022/04/26 04:00:38;;;;;;;16.57;10.20;;;;;;;;;;757588;184;915315;-60
2022/04/26 04:03:04;;;;;;;15.13;9.30;;;;;;;;;;762581;184;724491;-62
2022/04/26 04:05:30;;;;;;;15.70;9.50;;;;;;;;;;760832;182;920602;-60
2022/04/26 04:07:56;;;;;;;15.82;9.38;;;;;;;;;;762355;182;919976;-60
2022/04/26 04:10:21;;;;;;;16.90;11.37;;;;;;;;;;753192;182;917933;-61
2022/04/26 04:12:48;;;;;;;17.97;12.37;;;;;;;;;;750911;184;919052;-61
2022/04/26 04:15:13;;;;;;;16.27;10.07;;;;;;;;;;747370;185;1020442;-60
2022/04/26 04:17:39;;;;;;;19.07;11.87;;;;;;;;;;758094;184;637804;-60
2022/04/26 04:20:05;;;;;;;20.10;13.90;;;;;;;;;;752406;185;628658;-61
2022/04/26 04:22:31;;;;;;;22.83;14.70;;;;;;;;;;755083;184;623278;-60
2022/04/26 04:24:57;;;;;;;23.53;13.10;;;;;;;;;;754496;184;653765;-60
2022/04/26 04:27:23;;;;;;;25.70;18.10;;;;;;;;;;749372;186;634287;-61
2022/04/26 04:29:51;;;;;;;24.47;16.30;;;;;;;;;;762941;183;623885;-60
2022/04/26 04:32:15;;;;;;;28.80;17.00;;;;;;;;;;758445;183;625724;-61
2022/04/26 04:34:40;;;;;;;29.13;19.17;;;;;;;;;;768373;184;624807;-61
2022/04/26 04:37:07;;;;;;;35.17;17.20;;;;;;;;;;750867;184;919100;-60
2022/04/26 04:39:32;;;;;;;22.50;15.43;;;;;;;;;;759668;183;779858;-60
2022/04/26 04:41:59;;;;;;;26.87;16.23;;;;;;;;;;760692;184;918946;-60
2022/04/26 04:44:24;;;;;;;30.93;16.63;;;;;;;;;;757679;183;919014;-62
2022/04/26 04:46:50;;;;;;;32.80;18.07;;;;;;;;;;765708;183;626393;-60
2022/04/26 04:49:15;;;;;;;35.30;20.50;;;;;;;;;;755001;183;1021265;-60
2022/04/26 04:51:41;;;;;;;35.10;19.57;;;;;;;;;;762639;183;919428;-61
2022/04/26 04:54:07;;;;;;;40.20;21.10;;;;;;;;;;755339;184;918936;-60
2022/04/26 04:56:33;;;;;;;31.93;18.90;;;;;;;;;;757128;184;917413;-61
2022/04/26 04:58:59;;;;;;;42.70;21.60;;;;;;;;;;763284;184;631788;-60
2022/04/26 05:01:25;;;;;;;37.10;21.90;;;;;;;;;;755701;184;919031;-61
2022/04/26 05:03:51;;;;;;;46.07;21.10;;;;;;;;;;757919;184;916634;-60
2022/04/26 05:06:16;;;;;;;42.50;21.70;;;;;;;;;;758734;184;920927;-61
2022/04/26 05:08:42;;;;;;;40.77;19.53;;;;;;;;;;749985;184;923627;-60
2022/04/26 05:11:08;;;;;;;44.87;23.30;;;;;;;;;;751763;184;917940;-61
2022/04/26 05:13:34;;;;;;;47.43;22.43;;;;;;;;;;763216;183;918298;-60
2022/04/26 05:16:00;;;;;;;48.27;24.40;;;;;;;;;;752762;182;1636147;-60
2022/04/26 05:18:26;;;;;;;42.90;20.90;;;;;;;;;;758174;182;918866;-60
2022/04/26 05:20:52;;;;;;;42.80;22.47;;;;;;;;;;759542;182;918410;-61
2022/04/26 05:25:49;;;;;;;52.67;25.13;;;;;;;;;;759820;183;920023;-60
2022/04/26 05:28:15;;;;;;;42.43;22.53;;;;;;;;;;760476;183;918279;-60
2022/04/26 05:30:41;;;;;;;44.63;22.17;;;;;;;;;;762559;184;919853;-61
2022/04/26 05:33:08;;;;;;;48.10;23.10;;;;;;;;;;756293;184;919924;-61
2022/04/26 05:35:34;;;;;;;41.50;23.60;;;;;;;;;;748737;184;919322;-60
2022/04/26 05:38:00;;;;;;;29.92;18.27;;;;;;;;;;759198;183;919410;-61
2022/04/26 05:40:26;;;;;;;36.57;20.40;;;;;;;;;;759889;183;919431;-60
2022/04/26 05:42:51;;;;;;;35.47;19.37;;;;;;;;;;752989;183;919220;-61
2022/04/26 05:45:17;;;;;;;36.50;21.03;;;;;;;;;;756486;184;920781;-60
2022/04/26 05:47:43;;;;;;;33.63;21.17;;;;;;;;;;761322;184;919319;-61
2022/04/26 05:50:10;;;;;;;32.10;19.98;;;;;;;;;;759282;183;918792;-61
2022/04/26 05:52:36;;;;;;;30.00;18.00;;;;;;;;;;757720;183;919858;-60
2022/04/26 05:55:04;;;;;;;24.83;15.50;;;;;;;;;;760759;184;919109;-60
2022/04/26 05:57:27;;;;;;;24.70;14.77;;;;;;;;;;759226;183;922257;-61
2022/04/26 05:59:53;;;;;;;26.73;16.40;;;;;;;;;;751014;184;919839;-62
2022/04/26 06:02:19;;;;;;;20.00;13.97;;;;;;;;;;755489;184;923016;-61
2022/04/26 06:04:45;;;;;;;19.30;13.10;;;;;;;;;;760817;184;917955;-61
2022/04/26 06:07:11;;;;;;;18.63;13.33;;;;;;;;;;756236;183;921900;-61
2022/04/26 06:09:37;;;;;;;36.17;21.80;;;;;;;;;;751594;184;919238;-61
2022/04/26 06:12:03;;;;;;;25.40;15.20;;;;;;;;;;756893;184;920619;-60
2022/04/26 06:14:29;;;;;;;20.17;13.47;;;;;;;;;;752740;184;919100;-60
2022/04/26 06:16:55;;;;;;;18.50;12.50;;;;;;;;;;756658;184;920917;-62
2022/04/26 06:19:20;;;;;;;16.67;12.20;;;;;;;;;;760872;184;919759;-60
2022/04/26 06:21:46;;;;;;;19.60;11.57;;;;;;;;;;753646;184;934055;-61
2022/04/26 06:24:12;;;;;;;17.13;12.23;;;;;;;;;;754320;184;934339;-61
2022/04/26 06:26:38;;;;;;;19.53;11.90;;;;;;;;;;756958;183;917638;-63
2022/04/26 06:29:04;;;;;;;22.13;14.07;;;;;;;;;;766168;182;916515;-61
2022/04/26 06:31:30;;;;;;;22.67;15.13;;;;;;;;;;754007;183;917727;-60
2022/04/26 06:33:56;;;;;;;18.13;11.17;;;;;;;;;;750306;184;921030;-61
2022/04/26 06:36:21;;;;;;;18.97;12.63;;;;;;;;;;760845;184;915866;-60
2022/04/26 06:38:47;;;;;;;18.30;12.77;;;;;;;;;;765910;183;915945;-60
2022/04/26 06:41:13;;;;;;;17.23;12.17;;;;;;;;;;766156;183;917878;-61
2022/04/26 06:43:39;;;;;;;16.90;10.43;;;;;;;;;;762646;183;920640;-60
2022/04/26 06:46:05;;;;;;;14.40;10.50;;;;;;;;;;751485;184;919748;-61
2022/04/26 06:48:31;;;;;;;18.20;12.43;;;;;;;;;;755663;183;910304;-60
2022/04/26 06:50:57;;;;;;;16.87;11.03;;;;;;;;;;761725;184;921992;-61
2022/04/26 06:53:22;;;;;;;16.50;11.30;;;;;;;;;;754418;184;914753;-61
2022/04/26 06:55:48;;;;;;;20.80;11.80;;;;;;;;;;755525;184;916471;-60
2022/04/26 06:58:14;;;;;;;19.80;11.57;;;;;;;;;;755699;184;916296;-61
2022/04/26 07:00:40;;;;;;;14.70;8.83;;;;;;;;;;760695;184;1000648;-60
2022/04/26 07:03:06;;;;;;;12.77;10.40;;;;;;;;;;763358;182;920338;-61
2022/04/26 07:05:32;;;;;;;19.30;11.87;;;;;;;;;;761386;183;919943;-61
2022/04/26 07:07:57;;;;;;;15.67;9.93;;;;;;;;;;767203;183;915679;-61
2022/04/26 07:10:24;;;;;;;16.00;10.38;;;;;;;;;;762471;183;880035;-62
2022/04/26 07:12:49;;;;;;;14.20;8.87;;;;;;;;;;762207;183;915953;-61
2022/04/26 07:15:15;;;;;;;17.70;10.17;;;;;;;;;;765618;183;915502;-61
2022/04/26 07:17:41;;;;;;;14.60;9.47;;;;;;;;;;753748;183;916904;-60
2022/04/26 07:20:08;;;;;;;11.30;8.07;;;;;;;;;;754374;183;917983;-61
2022/04/26 07:22:33;;;;;;;17.60;8.70;;;;;;;;;;760148;183;915328;-61
2022/04/26 07:24:59;;;;;;;15.23;8.80;;;;;;;;;;765165;184;915992;-61
2022/04/26 07:27:25;;;;;;;14.30;9.67;;;;;;;;;;757836;184;1324648;-61
2022/04/26 07:29:51;;;;;;;21.20;12.53;;;;;;;;;;760178;183;916383;-60
2022/04/26 07:32:16;;;;;;;15.30;9.25;;;;;;;;;;753697;184;916665;-60
2022/04/26 07:34:42;;;;;;;13.83;9.87;;;;;;;;;;756013;184;918992;-62
2022/04/26 07:37:08;;;;;;;14.10;8.95;;;;;;;;;;757313;184;916693;-61
2022/04/26 07:39:34;;;;;;;13.33;8.83;;;;;;;;;;760912;183;916105;-64
2022/04/26 07:42:00;;;;;;;12.53;8.90;;;;;;;;;;758794;183;916059;-61
2022/04/26 07:44:26;;;;;;;13.60;8.57;;;;;;;;;;759141;184;916153;-61
2022/04/26 07:46:51;;;;;;;14.37;8.90;;;;;;;;;;759989;184;920282;-61
2022/04/26 07:49:19;;;;;;;16.93;10.37;;;;;;;;;;754808;186;915458;-62
2022/04/26 07:51:43;;;;;;;11.50;9.37;;;;;;;;;;752471;186;920385;-61
2022/04/26 07:54:09;;;;;;;12.10;9.02;;;;;;;;;;761339;182;918073;-62
2022/04/26 07:56:35;;;;;;;11.87;8.50;;;;;;;;;;762317;184;857801;-62
2022/04/26 07:59:03;;;;;;;15.15;7.80;;;;;;;;;;754193;184;919438;-62
2022/04/26 08:01:27;;;;;;;11.70;8.50;;;;;;;;;;765156;183;623770;-62
2022/04/26 08:03:52;;;;;;;15.30;8.80;;;;;;;;;;766516;184;620666;-63
2022/04/26 08:06:19;;;;;;;15.17;7.70;;;;;;;;;;765032;183;624042;-61
2022/04/26 08:08:44;;;;;;;14.07;9.47;;;;;;;;;;754445;184;636001;-61
2022/04/26 08:11:12;;;;;;;12.52;9.05;;;;;;;;;;754755;184;918584;-61
2022/04/26 08:13:37;;;;;;;13.27;8.33;;;;;;;;;;759103;184;1020627;-62
2022/04/26 08:16:03;;;;;;;12.27;8.43;;;;;;;;;;756589;184;917670;-62
2022/04/26 08:18:29;;;;;;;11.00;8.10;;;;;;;;;;753106;184;918995;-61
2022/04/26 08:20:55;;;;;;;12.20;7.30;;;;;;;;;;760479;184;921488;-63
2022/04/26 08:23:21;;;;;;;15.23;8.10;;;;;;;;;;757121;183;917888;-62
2022/04/26 08:28:19;;;;;;;11.98;8.80;;;;;;;;;;762020;184;918958;-62
2022/04/26 08:30:45;;;;;;;17.80;9.57;;;;;;;;;;755594;184;919461;-63
2022/04/26 08:33:10;;;;;;;9.33;7.43;;;;;;;;;;750422;184;919253;-61
2022/04/26 08:35:36;;;;;;;12.00;7.20;;;;;;;;;;751983;184;918953;-62
2022/04/26 08:38:02;;;;;;;16.83;8.63;;;;;;;;;;758010;184;917866;-62
2022/04/26 08:40:28;;;;;;;10.50;8.00;;;;;;;;;;754579;184;919262;-62
2022/04/26 08:42:54;;;;;;;14.20;8.33;;;;;;;;;;758342;183;941444;-64
2022/04/26 08:45:20;;;;;;;13.10;8.93;;;;;;;;;;759750;183;919105;-62
2022/04/26 08:52:49;;;;;;;11.47;7.83;;;;;;;;;;758089;183;919775;-62
2022/04/26 08:55:15;;;;;;;12.67;8.00;;;;;;;;;;764249;183;918729;-62
2022/04/26 08:57:40;;;;;;;9.40;7.40;;;;;;;;;;760264;182;919289;-62
2022/04/26 09:00:07;;;;;;;12.63;8.23;;;;;;;;;;765962;182;918732;-62
2022/04/26 09:02:32;;;;;;;8.83;7.00;;;;;;;;;;760121;184;918629;-62
2022/04/26 09:05:00;;;;;;;11.97;6.77;;;;;;;;;;757093;180;918454;-64
2022/04/26 09:07:29;;;;;;;14.83;6.73;;;;;;;;;;761139;184;919068;-63
2022/04/26 09:10:00;;;;;;;8.80;6.67;;;;;;;;;;751906;184;921921;-63
2022/04/26 09:12:26;;;;;;;13.53;7.83;;;;;;;;;;762838;184;918468;-63
2022/04/26 09:14:52;;;;;;;23.70;7.50;;;;;;;;;;756768;184;919024;-63
2022/04/26 09:17:18;;;;;;;17.60;10.60;;;;;;;;;;759931;183;918610;-62
2022/04/26 09:19:47;;;;;;;34.33;19.23;;;;;;;;;;762659;183;922703;-62
2022/04/26 09:22:16;;;;;;;13.83;8.17;;;;;;;;;;755013;186;919342;-63
2022/04/26 09:24:48;;;;;;;14.07;7.40;;;;;;;;;;737767;188;918358;-63
2022/04/26 09:27:15;;;;;;;12.80;6.73;;;;;;;;;;758590;184;919340;-63
2022/04/26 09:29:47;;;;;;;10.40;7.00;;;;;;;;;;753015;183;921017;-63
2022/04/26 09:32:13;;;;;;;14.07;9.37;;;;;;;;;;761375;184;920031;-63
2022/04/26 09:34:39;;;;;;;13.10;8.10;;;;;;;;;;753479;184;919653;-63
2022/04/26 09:37:05;;;;;;;10.93;7.97;;;;;;;;;;753136;184;917553;-63
2022/04/26 09:39:31;;;;;;;14.18;9.63;;;;;;;;;;760127;184;918218;-63
2022/04/26 09:41:57;;;;;;;10.83;6.77;;;;;;;;;;753982;184;920347;-64
2022/04/26 09:44:29;;;;;;;9.93;8.23;;;;;;;;;;751815;184;918859;-62
2022/04/26 09:46:54;;;;;;;16.12;6.68;;;;;;;;;;752038;183;919651;-63
2022/04/26 09:49:21;;;;;;;10.40;7.23;;;;;;;;;;755383;184;919607;-64
2022/04/26 09:51:47;;;;;;;16.50;9.13;;;;;;;;;;755342;184;917780;-62
2022/04/26 09:54:13;;;;;;;9.97;7.60;;;;;;;;;;753119;184;919157;-63
2022/04/26 09:56:39;;;;;;;11.83;7.63;;;;;;;;;;761230;184;916119;-64
2022/04/26 09:59:05;;;;;;;13.40;7.60;;;;;;;;;;762466;183;919736;-63
2022/04/26 10:01:31;;;;;;;11.40;6.77;;;;;;;;;;756162;183;920595;-63
2022/04/26 10:03:58;;;;;;;11.93;7.67;;;;;;;;;;754014;182;918612;-62
2022/04/26 10:06:24;;;;;;;9.70;6.13;;;;;;;;;;761161;184;918358;-62
2022/04/26 10:08:49;;;;;;;6.80;5.37;;;;;;;;;;757236;182;971546;-63
2022/04/26 10:11:17;;;;;;;9.13;6.45;;;;;;;;;;756898;184;919825;-64
2022/04/26 10:13:43;;;;;;;8.23;5.80;;;;;;;;;;759551;183;921246;-62
2022/04/26 10:16:09;;;;;;;15.13;9.40;;;;;;;;;;755102;183;916446;-63
2022/04/26 10:18:35;;;;;;;8.10;5.80;;;;;;;;;;755033;184;916488;-64
2022/04/26 10:21:00;;;;;;;12.00;7.57;;;;;;;;;;760834;183;912223;-63
2022/04/26 10:23:26;;;;;;;10.85;8.80;;;;;;;;;;765145;183;917073;-63
2022/04/26 10:25:58;;;;;;;12.03;9.37;;;;;;;;;;757383;184;919268;-63
2022/04/26 10:28:26;;;;;;;9.87;7.60;;;;;;;;;;761176;183;919209;-63
2022/04/26 10:30:50;;;;;;;10.53;6.37;;;;;;;;;;767017;183;918987;-63
2022/04/26 10:33:33;;;;;;;10.60;6.50;;;;;;;;;;758574;184;918096;-64
2022/04/26 10:35:58;;;;;;;10.57;7.57;;;;;;;;;;748835;185;922398;-63
2022/04/26 10:38:25;;;;;;;8.73;6.93;;;;;;;;;;755986;183;916051;-64
2022/04/26 10:40:56;;;;;;;9.60;6.90;;;;;;;;;;762430;183;919746;-63
2022/04/26 10:43:22;;;;;;;9.37;7.30;;;;;;;;;;748415;187;919629;-64
2022/04/26 10:45:53;;;;;;;15.40;7.03;;;;;;;;;;748778;184;919614;-62
2022/04/26 10:48:19;;;;;;;8.07;6.37;;;;;;;;;;746422;184;918910;-63
2022/04/26 10:50:45;;;;;;;8.70;6.60;;;;;;;;;;756237;184;919842;-62
2022/04/26 10:53:11;;;;;;;10.97;6.70;;;;;;;;;;763643;183;919300;-63
2022/04/26 10:55:37;;;;;;;8.87;6.23;;;;;;;;;;751075;184;919246;-63
2022/04/26 10:58:04;;;;;;;8.63;6.22;;;;;;;;;;755954;183;1020204;-64
2022/04/26 11:00:28;;;;;;;12.77;7.07;;;;;;;;;;757049;185;918809;-64
2022/04/26 11:02:54;;;;;;;12.87;7.10;;;;;;;;;;749657;185;919527;-63
2022/04/26 11:05:23;;;;;;;12.33;8.83;;;;;;;;;;757279;183;919811;-64
2022/04/26 11:07:49;;;;;;;12.68;7.05;;;;;;;;;;760325;184;919232;-63
2022/04/26 11:10:15;;;;;;;14.17;6.83;;;;;;;;;;754145;184;919707;-63
2022/04/26 11:12:40;;;;;;;6.83;5.70;;;;;;;;;;754740;182;920713;-63
2022/04/26 11:15:07;;;;;;;10.83;7.13;;;;;;;;;;758352;183;919756;-64
2022/04/26 11:17:32;;;;;;;8.53;7.67;;;;;;;;;;762659;184;920293;-64
2022/04/26 11:19:58;;;;;;;13.15;6.68;;;;;;;;;;759138;182;918556;-64
2022/04/26 11:22:24;;;;;;;11.07;7.57;;;;;;;;;;757014;183;919717;-64
2022/04/26 11:29:53;;;;;;;10.13;6.43;;;;;;;;;;734915;187;918744;-64
2022/04/26 11:32:25;;;;;;;8.83;6.00;;;;;;;;;;728517;186;919225;-64
2022/04/26 11:34:50;;;;;;;7.20;5.93;;;;;;;;;;754767;184;912336;-65
2022/04/26 11:37:16;;;;;;;11.40;6.67;;;;;;;;;;740772;186;911301;-64
2022/04/26 11:39:42;;;;;;;7.80;5.37;;;;;;;;;;754558;183;911885;-64
2022/04/26 11:42:08;;;;;;;8.60;5.20;;;;;;;;;;758669;183;912839;-63
2022/04/26 11:44:35;;;;;;;6.93;5.60;;;;;;;;;;734750;190;912056;-63
2022/04/26 11:47:00;;;;;;;8.50;5.50;;;;;;;;;;756848;183;912253;-64
2022/04/26 11:49:42;;;;;;;8.48;5.37;;;;;;;;;;753101;184;920232;-64
2022/04/26 11:52:08;;;;;;;10.20;6.60;;;;;;;;;;760591;184;942422;-64
2022/04/26 11:54:34;;;;;;;12.17;8.33;;;;;;;;;;761841;184;918271;-64
2022/04/26 11:57:00;;;;;;;9.63;6.53;;;;;;;;;;753339;184;919400;-64
2022/04/26 11:59:26;;;;;;;9.05;6.40;;;;;;;;;;755695;184;919275;-64
2022/04/26 12:01:51;;;;;;;9.77;7.17;;;;;;;;;;762137;183;917908;-63
2022/04/26 12:04:17;;;;;;;9.73;6.90;;;;;;;;;;753788;183;919630;-64
2022/04/26 12:06:44;;;;;;;9.00;6.70;;;;;;;;;;753795;183;919734;-65
2022/04/26 12:09:11;;;;;;;10.93;7.03;;;;;;;;;;760843;184;918528;-64
2022/04/26 12:11:36;;;;;;;8.90;6.53;;;;;;;;;;758829;184;1021496;-64
2022/04/26 12:14:17;;;;;;;12.47;7.03;;;;;;;;;;756910;184;918280;-64
2022/04/26 12:16:44;;;;;;;11.73;6.27;;;;;;;;;;753113;184;919573;-65
2022/04/26 12:19:10;;;;;;;6.95;5.80;;;;;;;;;;751462;183;956535;-64
2022/04/26 12:21:42;;;;;;;10.90;6.63;;;;;;;;;;759345;183;925074;-63
2022/04/26 12:24:12;;;;;;;7.93;5.73;;;;;;;;;;758781;183;919892;-64
2022/04/26 12:26:44;;;;;;;20.63;6.80;;;;;;;;;;763139;182;918979;-66
2022/04/26 12:29:12;;;;;;;10.97;6.77;;;;;;;;;;763479;182;637410;-66
2022/04/26 12:31:37;;;;;;;11.53;5.40;;;;;;;;;;761246;183;919160;-64
2022/04/26 12:36:41;;;;;;;9.60;6.90;;;;;;;;;;761288;183;919055;-63
2022/04/26 12:39:06;;;;;;;12.32;6.57;;;;;;;;;;756127;183;1020440;-64
2022/04/26 12:41:32;;;;;;;7.47;6.20;;;;;;;;;;761759;184;919540;-65
2022/04/26 12:44:00;;;;;;;8.77;5.90;;;;;;;;;;751545;183;919306;-64
2022/04/26 12:46:26;;;;;;;9.93;5.97;;;;;;;;;;753553;184;918835;-64
2022/04/26 12:51:29;;;;;;;7.83;7.00;;;;;;;;;;765329;183;905459;-63
2022/04/26 12:54:01;;;;;;;9.87;7.67;;;;;;;;;;753821;184;919042;-64
2022/04/26 12:56:26;;;;;;;9.80;6.67;;;;;;;;;;754292;183;927228;-64
2022/04/26 12:58:52;;;;;;;9.23;6.23;;;;;;;;;;757802;183;923516;-66
2022/04/26 13:01:20;;;;;;;9.77;7.40;;;;;;;;;;764954;183;919369;-65
2022/04/26 13:03:44;;;;;;;8.17;5.40;;;;;;;;;;760136;184;919181;-64
2022/04/26 13:06:14;;;;;;;8.38;5.90;;;;;;;;;;757125;183;927781;-64
2022/04/26 13:08:40;;;;;;;8.32;5.65;;;;;;;;;;754746;184;919615;-63
2022/04/26 13:11:06;;;;;;;11.37;5.90;;;;;;;;;;751201;184;918628;-64
2022/04/26 13:13:32;;;;;;;9.33;6.57;;;;;;;;;;747544;184;919674;-64
2022/04/26 13:15:58;;;;;;;14.87;7.22;;;;;;;;;;749076;184;919231;-64
2022/04/26 13:18:23;;;;;;;9.57;7.57;;;;;;;;;;762467;184;917684;-64
2022/04/26 13:20:49;;;;;;;13.68;7.28;;;;;;;;;;753599;184;919209;-64
2022/04/26 13:23:15;;;;;;;13.70;8.10;;;;;;;;;;752457;184;918827;-65
2022/04/26 13:25:41;;;;;;;9.73;6.63;;;;;;;;;;762603;184;917576;-64
2022/04/26 13:28:07;;;;;;;9.00;6.70;;;;;;;;;;752359;183;919011;-64
2022/04/26 13:30:33;;;;;;;9.03;7.07;;;;;;;;;;757827;184;918542;-64
2022/04/26 13:32:59;;;;;;;10.43;7.00;;;;;;;;;;758915;183;918604;-64
2022/04/26 13:35:26;;;;;;;9.80;7.57;;;;;;;;;;750932;184;919474;-64
2022/04/26 13:37:52;;;;;;;9.37;6.40;;;;;;;;;;759022;183;919289;-64
2022/04/26 13:40:18;;;;;;;10.77;7.30;;;;;;;;;;755438;182;919861;-64
2022/04/26 13:42:44;;;;;;;9.40;6.50;;;;;;;;;;762233;184;1022333;-64
2022/04/26 13:45:10;;;;;;;10.77;6.63;;;;;;;;;;755812;182;919020;-64
2022/04/26 13:47:37;;;;;;;9.85;6.62;;;;;;;;;;756365;183;919287;-63
2022/04/26 13:50:02;;;;;;;10.13;6.97;;;;;;;;;;760551;184;918655;-65
2022/04/26 13:52:28;;;;;;;12.47;7.77;;;;;;;;;;756154;184;919188;-64
2022/04/26 13:54:54;;;;;;;9.60;7.00;;;;;;;;;;754220;184;1021289;-64
2022/04/26 13:57:19;;;;;;;7.40;5.93;;;;;;;;;;761983;184;918604;-64
2022/04/26 13:59:46;;;;;;;8.60;6.50;;;;;;;;;;751137;184;919078;-65
2022/04/26 14:02:11;;;;;;;14.03;7.67;;;;;;;;;;754613;184;919690;-66
2022/04/26 14:04:37;;;;;;;11.70;7.03;;;;;;;;;;755317;184;920739;-68
2022/04/26 14:07:03;;;;;;;17.83;7.10;;;;;;;;;;759915;184;918567;-65
2022/04/26 14:09:29;;;;;;;7.93;5.70;;;;;;;;;;754783;183;918735;-65
2022/04/26 14:11:55;;;;;;;10.40;6.73;;;;;;;;;;754610;184;918558;-64
2022/04/26 14:21:56;;;;;;;9.27;6.00;;;;;;;;;;756965;183;918478;-65
2022/04/26 14:24:22;;;;;;;7.45;5.20;;;;;;;;;;765923;183;917027;-65
2022/04/26 14:26:49;;;;;;;8.60;5.37;;;;;;;;;;752633;183;919249;-65
2022/04/26 14:29:14;;;;;;;10.95;7.57;;;;;;;;;;755588;184;919054;-65
2022/04/26 14:31:39;;;;;;;6.93;5.13;;;;;;;;;;754828;184;919471;-65
2022/04/26 14:34:05;;;;;;;10.93;6.53;;;;;;;;;;761308;184;919987;-65
2022/04/26 14:36:31;;;;;;;6.50;4.73;;;;;;;;;;756997;183;917779;-65
2022/04/26 14:38:57;;;;;;;11.40;6.95;;;;;;;;;;752393;184;919171;-66
2022/04/26 14:41:23;;;;;;;11.40;7.00;;;;;;;;;;763618;183;919440;-65
2022/04/26 14:43:49;;;;;;;11.60;6.77;;;;;;;;;;761462;183;917881;-65
2022/04/26 14:46:14;;;;;;;13.60;8.17;;;;;;;;;;753339;184;919526;-65
2022/04/26 14:48:40;;;;;;;7.37;5.47;;;;;;;;;;762738;182;919366;-66
2022/04/26 14:51:06;;;;;;;7.87;6.00;;;;;;;;;;759631;183;976462;-65
2022/04/26 14:53:32;;;;;;;11.77;8.17;;;;;;;;;;766438;182;918948;-66
2022/04/26 14:55:58;;;;;;;26.93;20.17;;;;;;;;;;754023;182;923998;-65
2022/04/26 14:58:24;;;;;;;28.07;17.60;;;;;;;;;;767286;183;626780;-65
2022/04/26 15:00:49;;;;;;;13.20;7.83;;;;;;;;;;758697;184;627555;-66
2022/04/26 15:03:15;;;;;;;7.27;5.80;;;;;;;;;;753519;184;917431;-65
2022/04/26 15:05:41;;;;;;;12.23;8.57;;;;;;;;;;750618;185;918767;-65
2022/04/26 15:10:39;;;;;;;11.97;8.27;;;;;;;;;;757644;184;919160;-65
2022/04/26 15:18:08;;;;;;;8.37;5.57;;;;;;;;;;764449;183;622926;-64
2022/04/26 15:20:34;;;;;;;8.20;6.57;;;;;;;;;;760925;183;918427;-65
2022/04/26 15:23:01;;;;;;;8.43;6.37;;;;;;;;;;759064;183;1020001;-65
2022/04/26 15:25:25;;;;;;;10.40;6.87;;;;;;;;;;750185;186;919627;-65
2022/04/26 15:27:51;;;;;;;9.07;6.47;;;;;;;;;;755378;184;918801;-66
2022/04/26 15:30:17;;;;;;;7.05;5.70;;;;;;;;;;756677;184;919076;-65
2022/04/26 15:32:43;;;;;;;7.73;5.83;;;;;;;;;;760854;184;917990;-66
2022/04/26 15:35:10;;;;;;;8.77;6.10;;;;;;;;;;755911;184;919747;-67
2022/04/26 15:37:34;;;;;;;9.87;7.50;;;;;;;;;;755489;184;918490;-66
2022/04/26 15:40:00;;;;;;;8.00;6.20;;;;;;;;;;763702;184;920182;-66
2022/04/26 15:42:26;;;;;;;8.80;6.47;;;;;;;;;;760013;183;919315;-65
2022/04/26 15:44:52;;;;;;;9.87;6.77;;;;;;;;;;762402;183;920388;-64
2022/04/26 15:47:19;;;;;;;11.00;7.33;;;;;;;;;;762208;183;918367;-64
2022/04/26 15:49:45;;;;;;;10.20;6.53;;;;;;;;;;755205;187;920353;-63
2022/04/26 15:52:11;;;;;;;8.10;6.80;;;;;;;;;;743423;186;922124;-64
2022/04/26 15:54:37;;;;;;;10.15;7.45;;;;;;;;;;741179;187;919487;-68
2022/04/26 15:57:03;;;;;;;13.00;6.83;;;;;;;;;;755997;184;903968;-67
2022/04/26 15:59:29;;;;;;;11.27;6.87;;;;;;;;;;758660;184;918508;-66
2022/04/26 16:01:55;;;;;;;14.37;7.57;;;;;;;;;;757976;183;918653;-67
2022/04/26 16:04:21;;;;;;;9.90;8.07;;;;;;;;;;759322;184;617081;-66
2022/04/26 16:06:47;;;;;;;14.13;7.80;;;;;;;;;;760648;184;918961;-66
2022/04/26 16:21:50;;;;;;;52.60;26.53;;;;;;;;;;756593;184;916510;-67
2022/04/26 16:24:17;;;;;;;24.02;12.90;;;;;;;;;;762545;183;915883;-66
2022/04/26 16:26:43;;;;;;;26.47;15.03;;;;;;;;;;748545;184;919476;-67
2022/04/26 16:29:09;;;;;;;26.85;13.85;;;;;;;;;;750226;183;1069802;-67
2022/04/26 16:31:35;;;;;;;50.27;26.97;;;;;;;;;;727705;190;918624;-67
2022/04/26 16:34:01;;;;;;;29.50;19.27;;;;;;;;;;751353;184;907079;-67
2022/04/26 16:36:27;;;;;;;19.45;13.50;;;;;;;;;;757948;183;919694;-67
2022/04/26 16:38:52;;;;;;;18.37;12.87;;;;;;;;;;761491;184;619678;-68
2022/04/26 16:41:19;;;;;;;20.27;11.70;;;;;;;;;;764564;184;631065;-66
2022/04/26 16:43:44;;;;;;;20.50;13.57;;;;;;;;;;763943;183;625491;-66
2022/04/26 16:46:11;;;;;;;27.77;16.70;;;;;;;;;;760445;184;628845;-66
2022/04/26 16:48:38;;;;;;;24.58;17.95;;;;;;;;;;759671;184;920860;-66
2022/04/26 16:51:03;;;;;;;18.00;12.20;;;;;;;;;;750142;184;913356;-67
2022/04/26 16:53:29;;;;;;;27.30;13.50;;;;;;;;;;757030;183;916125;-67
2022/04/26 16:55:55;;;;;;;18.53;13.27;;;;;;;;;;754574;183;916071;-67
2022/04/26 16:58:21;;;;;;;16.93;11.20;;;;;;;;;;756779;184;913705;-65
2022/04/26 17:00:48;;;;;;;15.40;11.17;;;;;;;;;;754712;183;913796;-66
2022/04/26 17:03:15;;;;;;;17.77;15.87;;;;;;;;;;752990;183;917571;-67
2022/04/26 17:05:45;;;;;;;15.07;10.53;;;;;;;;;;760111;183;912826;-66
2022/04/26 17:08:05;;;;;;;14.75;11.38;;;;;;;;;;753046;183;1021443;-66
2022/04/26 17:10:31;;;;;;;13.83;9.93;;;;;;;;;;751092;183;943931;-66
2022/04/26 17:12:56;;;;;;;12.60;10.67;;;;;;;;;;762182;183;918414;-67
2022/04/26 17:15:22;;;;;;;12.50;9.80;;;;;;;;;;757689;184;919045;-66
2022/04/26 17:17:49;;;;;;;13.30;9.90;;;;;;;;;;755765;183;919636;-67
2022/04/26 17:20:14;;;;;;;14.30;9.47;;;;;;;;;;756569;184;920421;-66
2022/04/26 17:22:40;;;;;;;14.27;10.33;;;;;;;;;;759230;183;918847;-66
2022/04/26 17:27:37;;;;;;;15.15;10.25;;;;;;;;;;753745;184;928774;-66
2022/04/26 17:30:04;;;;;;;17.87;13.50;;;;;;;;;;760139;184;920103;-66
2022/04/26 17:32:30;;;;;;;12.03;8.77;;;;;;;;;;754122;183;930533;-67
2022/04/26 17:34:56;;;;;;;17.57;11.13;;;;;;;;;;758661;184;919092;-66
2022/04/26 17:37:22;;;;;;;22.07;16.40;;;;;;;;;;757133;184;1020766;-66
2022/04/26 17:39:48;;;;;;;15.93;11.93;;;;;;;;;;765265;184;918867;-66
2022/04/26 17:42:15;;;;;;;18.12;13.23;;;;;;;;;;754255;184;919408;-66
2022/04/26 17:44:40;;;;;;;16.77;11.50;;;;;;;;;;756509;183;634171;-67
2022/04/26 17:47:08;;;;;;;17.10;13.10;;;;;;;;;;757094;184;624046;-67
2022/04/26 17:49:35;;;;;;;26.00;15.30;;;;;;;;;;753995;184;625034;-66
2022/04/26 17:52:00;;;;;;;25.30;14.80;;;;;;;;;;753061;181;920418;-66
2022/04/26 17:56:58;;;;;;;26.63;17.30;;;;;;;;;;761622;183;630711;-66
2022/04/26 17:59:24;;;;;;;19.57;13.60;;;;;;;;;;763814;183;639298;-66
2022/04/26 18:01:49;;;;;;;19.20;14.57;;;;;;;;;;769621;183;630087;-67
2022/04/26 18:04:15;;;;;;;19.10;13.03;;;;;;;;;;764987;183;919371;-66
2022/04/26 18:06:41;;;;;;;19.70;13.50;;;;;;;;;;752957;184;918322;-66
2022/04/26 18:09:07;;;;;;;20.83;13.97;;;;;;;;;;753387;184;919135;-67
2022/04/26 18:11:33;;;;;;;19.83;13.07;;;;;;;;;;760093;184;920108;-66
2022/04/26 18:13:58;;;;;;;20.10;13.70;;;;;;;;;;758476;183;920188;-67
2022/04/26 18:16:24;;;;;;;19.97;13.60;;;;;;;;;;759556;180;919033;-66
2022/04/26 18:18:50;;;;;;;21.17;15.13;;;;;;;;;;756390;184;918942;-66
2022/04/26 18:21:17;;;;;;;28.60;17.67;;;;;;;;;;760520;184;919144;-66
2022/04/26 18:23:43;;;;;;;22.97;15.30;;;;;;;;;;760663;183;919407;-66
2022/04/26 18:26:11;;;;;;;23.97;18.53;;;;;;;;;;757140;182;919098;-65
2022/04/26 18:28:39;;;;;;;23.97;17.00;;;;;;;;;;762833;182;917090;-67
2022/04/26 18:31:05;;;;;;;53.37;27.60;;;;;;;;;;758354;184;919067;-66
2022/04/26 18:33:31;;;;;;;34.03;25.55;;;;;;;;;;763195;183;917068;-66
2022/04/26 18:35:57;;;;;;;40.53;25.10;;;;;;;;;;755345;183;919189;-66